首页
METAR-TAF:

METAR-TAF

机场 :

Upshur County Regional Airport

Buckhannon, 西維吉尼亞州, 美国

纬度: 39-00N, 经度: 080-16W, 海拔: 498米

当前天气观测

该预报发布于27分钟前的04:55 UTC
风速12节,风向南转西南,有时为23节阵风
温度 19°C
湿度 100%
气压 1017 hPa
能見度: 11.3公里
少量云层高于1200英尺
多云层高于3600英尺
阴天层高于7500英尺

METAR: KW22 170455Z AUTO 20012G23KT 7SM FEW012 BKN036 OVC075 19/19 A3004 RMK AO2

时间: 01:22 (05:22 UTC)


TAF: 丢失

超过4000个机场的气象观测和天气预报(METAR&TAF报告)。

可查询的气象台以黄色和红色小点在地图上表示。

将鼠标移到小点上方,可查看气象台名称。

然后点击查看天气观测和预报。

如需切换地图:点击带黑十字的绿色按钮放大地图;点击带横线的绿色按钮缩小地图;或者点击绿色箭头查看邻近地区的地图。


METAR-TAF: